sensor_id;sensor_type;location;lat;lon;timestamp;P1;durP1;ratioP1;P2;durP2;ratioP2
49764;SDS011;35657;51.204;-4.130;2023-04-19T00:01:32;13.20;;;5.82;;
49764;SDS011;35657;51.204;-4.130;2023-04-19T00:03:57;12.02;;;5.60;;
49764;SDS011;35657;51.204;-4.130;2023-04-19T00:06:23;8.88;;;5.22;;
49764;SDS011;35657;51.204;-4.130;2023-04-19T00:08:50;10.13;;;5.57;;
49764;SDS011;35657;51.204;-4.130;2023-04-19T00:11:16;12.18;;;6.40;;
49764;SDS011;35657;51.204;-4.130;2023-04-19T00:13:42;11.85;;;5.80;;
49764;SDS011;35657;51.204;-4.130;2023-04-19T00:16:07;8.30;;;5.88;;
49764;SDS011;35657;51.204;-4.130;2023-04-19T00:18:33;13.07;;;5.45;;
49764;SDS011;35657;51.204;-4.130;2023-04-19T00:20:59;11.93;;;8.07;;
49764;SDS011;35657;51.204;-4.130;2023-04-19T00:23:26;10.70;;;6.85;;
49764;SDS011;35657;51.204;-4.130;2023-04-19T00:25:52;10.52;;;6.00;;
49764;SDS011;35657;51.204;-4.130;2023-04-19T00:28:18;12.15;;;6.82;;
49764;SDS011;35657;51.204;-4.130;2023-04-19T00:30:43;9.38;;;7.30;;
49764;SDS011;35657;51.204;-4.130;2023-04-19T00:33:09;10.43;;;6.18;;
49764;SDS011;35657;51.204;-4.130;2023-04-19T00:35:39;10.57;;;5.80;;
49764;SDS011;35657;51.204;-4.130;2023-04-19T00:38:08;16.05;;;7.28;;
49764;SDS011;35657;51.204;-4.130;2023-04-19T00:40:34;10.65;;;7.13;;
49764;SDS011;35657;51.204;-4.130;2023-04-19T00:43:01;9.35;;;6.40;;
49764;SDS011;35657;51.204;-4.130;2023-04-19T00:45:27;8.98;;;5.45;;
49764;SDS011;35657;51.204;-4.130;2023-04-19T00:47:53;12.98;;;5.63;;
49764;SDS011;35657;51.204;-4.130;2023-04-19T00:50:20;9.45;;;5.40;;
49764;SDS011;35657;51.204;-4.130;2023-04-19T00:52:46;11.98;;;5.95;;
49764;SDS011;35657;51.204;-4.130;2023-04-19T00:55:12;13.38;;;6.30;;
49764;SDS011;35657;51.204;-4.130;2023-04-19T00:57:38;11.30;;;6.32;;
49764;SDS011;35657;51.204;-4.130;2023-04-19T01:00:05;13.07;;;6.95;;
49764;SDS011;35657;51.204;-4.130;2023-04-19T01:02:33;11.98;;;7.13;;
49764;SDS011;35657;51.204;-4.130;2023-04-19T01:04:59;12.30;;;6.43;;
49764;SDS011;35657;51.204;-4.130;2023-04-19T01:07:25;13.00;;;7.55;;
49764;SDS011;35657;51.204;-4.130;2023-04-19T01:09:51;11.23;;;6.28;;
49764;SDS011;35657;51.204;-4.130;2023-04-19T01:12:17;9.95;;;6.43;;
49764;SDS011;35657;51.204;-4.130;2023-04-19T01:14:43;14.18;;;5.95;;
49764;SDS011;35657;51.204;-4.130;2023-04-19T01:17:08;10.40;;;6.15;;
49764;SDS011;35657;51.204;-4.130;2023-04-19T01:19:35;9.32;;;6.20;;
49764;SDS011;35657;51.204;-4.130;2023-04-19T01:22:02;17.63;;;7.60;;
49764;SDS011;35657;51.204;-4.130;2023-04-19T01:24:29;14.23;;;8.20;;
49764;SDS011;35657;51.204;-4.130;2023-04-19T01:26:54;9.73;;;6.93;;
49764;SDS011;35657;51.204;-4.130;2023-04-19T01:29:20;11.30;;;8.27;;
49764;SDS011;35657;51.204;-4.130;2023-04-19T01:31:46;11.68;;;7.40;;
49764;SDS011;35657;51.204;-4.130;2023-04-19T01:34:17;12.50;;;8.48;;
49764;SDS011;35657;51.204;-4.130;2023-04-19T01:36:43;11.32;;;8.95;;
49764;SDS011;35657;51.204;-4.130;2023-04-19T01:39:09;11.48;;;8.30;;
49764;SDS011;35657;51.204;-4.130;2023-04-19T01:41:35;13.48;;;8.25;;
49764;SDS011;35657;51.204;-4.130;2023-04-19T01:44:01;11.65;;;7.57;;
49764;SDS011;35657;51.204;-4.130;2023-04-19T01:46:27;15.73;;;9.60;;
49764;SDS011;35657;51.204;-4.130;2023-04-19T01:48:52;10.38;;;6.68;;
49764;SDS011;35657;51.204;-4.130;2023-04-19T01:51:18;11.73;;;8.68;;
49764;SDS011;35657;51.204;-4.130;2023-04-19T01:53:45;12.73;;;7.65;;
49764;SDS011;35657;51.204;-4.130;2023-04-19T01:56:16;10.88;;;6.95;;
49764;SDS011;35657;51.204;-4.130;2023-04-19T01:58:42;13.82;;;8.38;;
49764;SDS011;35657;51.204;-4.130;2023-04-19T02:01:08;13.20;;;8.15;;
49764;SDS011;35657;51.204;-4.130;2023-04-19T02:03:36;12.00;;;8.35;;
49764;SDS011;35657;51.204;-4.130;2023-04-19T02:06:03;18.63;;;8.73;;
49764;SDS011;35657;51.204;-4.130;2023-04-19T02:08:28;12.98;;;9.05;;
49764;SDS011;35657;51.204;-4.130;2023-04-19T02:10:54;16.42;;;8.98;;
49764;SDS011;35657;51.204;-4.130;2023-04-19T02:13:20;16.77;;;11.93;;
49764;SDS011;35657;51.204;-4.130;2023-04-19T02:15:46;15.57;;;8.80;;
49764;SDS011;35657;51.204;-4.130;2023-04-19T02:18:11;16.67;;;9.13;;
49764;SDS011;35657;51.204;-4.130;2023-04-19T02:20:37;12.68;;;8.10;;
49764;SDS011;35657;51.204;-4.130;2023-04-19T02:23:03;16.75;;;9.15;;
49764;SDS011;35657;51.204;-4.130;2023-04-19T02:25:29;16.77;;;7.82;;
49764;SDS011;35657;51.204;-4.130;2023-04-19T02:27:55;14.52;;;7.28;;
49764;SDS011;35657;51.204;-4.130;2023-04-19T02:30:21;14.85;;;8.18;;
49764;SDS011;35657;51.204;-4.130;2023-04-19T02:32:47;15.43;;;8.98;;
49764;SDS011;35657;51.204;-4.130;2023-04-19T02:35:13;14.77;;;8.80;;
49764;SDS011;35657;51.204;-4.130;2023-04-19T02:37:39;14.27;;;7.93;;
49764;SDS011;35657;51.204;-4.130;2023-04-19T02:40:06;13.02;;;8.60;;
49764;SDS011;35657;51.204;-4.130;2023-04-19T02:42:32;17.60;;;8.60;;
49764;SDS011;35657;51.204;-4.130;2023-04-19T02:44:58;17.67;;;10.18;;
49764;SDS011;35657;51.204;-4.130;2023-04-19T02:47:24;16.08;;;8.20;;
49764;SDS011;35657;51.204;-4.130;2023-04-19T02:49:50;16.20;;;9.93;;
49764;SDS011;35657;51.204;-4.130;2023-04-19T02:52:15;13.30;;;8.52;;
49764;SDS011;35657;51.204;-4.130;2023-04-19T02:54:41;13.15;;;8.13;;
49764;SDS011;35657;51.204;-4.130;2023-04-19T02:57:07;11.90;;;7.75;;
49764;SDS011;35657;51.204;-4.130;2023-04-19T02:59:32;16.08;;;7.72;;
49764;SDS011;35657;51.204;-4.130;2023-04-19T03:01:58;20.92;;;10.32;;
49764;SDS011;35657;51.204;-4.130;2023-04-19T03:04:24;18.88;;;9.07;;
49764;SDS011;35657;51.204;-4.130;2023-04-19T03:06:50;15.73;;;9.05;;
49764;SDS011;35657;51.204;-4.130;2023-04-19T03:09:16;17.80;;;8.93;;
49764;SDS011;35657;51.204;-4.130;2023-04-19T03:11:42;17.95;;;10.23;;
49764;SDS011;35657;51.204;-4.130;2023-04-19T03:14:08;20.90;;;12.65;;
49764;SDS011;35657;51.204;-4.130;2023-04-19T03:16:33;18.92;;;13.18;;
49764;SDS011;35657;51.204;-4.130;2023-04-19T03:18:59;23.00;;;13.95;;
49764;SDS011;35657;51.204;-4.130;2023-04-19T03:21:25;14.27;;;9.80;;
49764;SDS011;35657;51.204;-4.130;2023-04-19T03:23:53;19.83;;;11.75;;
49764;SDS011;35657;51.204;-4.130;2023-04-19T03:26:19;18.52;;;12.65;;
49764;SDS011;35657;51.204;-4.130;2023-04-19T03:28:45;20.00;;;12.88;;
49764;SDS011;35657;51.204;-4.130;2023-04-19T03:31:10;20.00;;;12.65;;
49764;SDS011;35657;51.204;-4.130;2023-04-19T03:33:36;24.13;;;13.77;;
49764;SDS011;35657;51.204;-4.130;2023-04-19T03:36:02;23.15;;;12.30;;
49764;SDS011;35657;51.204;-4.130;2023-04-19T03:38:28;23.05;;;12.48;;
49764;SDS011;35657;51.204;-4.130;2023-04-19T03:40:54;23.70;;;12.27;;
49764;SDS011;35657;51.204;-4.130;2023-04-19T03:43:21;23.08;;;13.63;;
49764;SDS011;35657;51.204;-4.130;2023-04-19T03:45:48;24.08;;;15.38;;
49764;SDS011;35657;51.204;-4.130;2023-04-19T03:48:14;25.27;;;13.13;;
49764;SDS011;35657;51.204;-4.130;2023-04-19T03:50:40;20.15;;;10.95;;
49764;SDS011;35657;51.204;-4.130;2023-04-19T03:53:06;21.88;;;14.27;;
49764;SDS011;35657;51.204;-4.130;2023-04-19T03:55:31;20.52;;;10.93;;
49764;SDS011;35657;51.204;-4.130;2023-04-19T03:57:57;29.95;;;12.50;;
49764;SDS011;35657;51.204;-4.130;2023-04-19T04:00:23;28.35;;;16.05;;
49764;SDS011;35657;51.204;-4.130;2023-04-19T04:02:50;24.45;;;12.18;;
49764;SDS011;35657;51.204;-4.130;2023-04-19T04:05:16;30.02;;;15.02;;
49764;SDS011;35657;51.204;-4.130;2023-04-19T04:07:41;25.52;;;14.65;;
49764;SDS011;35657;51.204;-4.130;2023-04-19T04:10:07;22.98;;;12.43;;
49764;SDS011;35657;51.204;-4.130;2023-04-19T04:12:33;21.70;;;12.18;;
49764;SDS011;35657;51.204;-4.130;2023-04-19T04:14:59;26.77;;;15.95;;
49764;SDS011;35657;51.204;-4.130;2023-04-19T04:17:24;27.27;;;15.90;;
49764;SDS011;35657;51.204;-4.130;2023-04-19T04:19:50;28.65;;;16.05;;
49764;SDS011;35657;51.204;-4.130;2023-04-19T04:22:16;26.60;;;16.77;;
49764;SDS011;35657;51.204;-4.130;2023-04-19T04:24:42;23.10;;;16.73;;
49764;SDS011;35657;51.204;-4.130;2023-04-19T04:27:08;29.30;;;13.80;;
49764;SDS011;35657;51.204;-4.130;2023-04-19T04:29:35;26.20;;;17.92;;
49764;SDS011;35657;51.204;-4.130;2023-04-19T04:32:04;24.05;;;16.40;;
49764;SDS011;35657;51.204;-4.130;2023-04-19T04:34:38;31.15;;;18.63;;
49764;SDS011;35657;51.204;-4.130;2023-04-19T04:37:05;30.52;;;14.77;;
49764;SDS011;35657;51.204;-4.130;2023-04-19T04:39:32;30.90;;;14.55;;
49764;SDS011;35657;51.204;-4.130;2023-04-19T04:42:03;26.42;;;17.02;;
49764;SDS011;35657;51.204;-4.130;2023-04-19T04:44:32;30.17;;;17.23;;
49764;SDS011;35657;51.204;-4.130;2023-04-19T04:46:58;31.25;;;17.98;;
49764;SDS011;35657;51.204;-4.130;2023-04-19T04:49:23;28.38;;;19.60;;
49764;SDS011;35657;51.204;-4.130;2023-04-19T04:51:49;36.72;;;18.52;;
49764;SDS011;35657;51.204;-4.130;2023-04-19T04:54:15;27.70;;;16.55;;
49764;SDS011;35657;51.204;-4.130;2023-04-19T04:56:41;33.88;;;19.30;;
49764;SDS011;35657;51.204;-4.130;2023-04-19T04:59:06;27.27;;;17.55;;
49764;SDS011;35657;51.204;-4.130;2023-04-19T05:01:32;29.80;;;18.15;;
49764;SDS011;35657;51.204;-4.130;2023-04-19T05:03:58;29.33;;;17.77;;
49764;SDS011;35657;51.204;-4.130;2023-04-19T05:06:24;30.45;;;17.40;;
49764;SDS011;35657;51.204;-4.130;2023-04-19T05:08:50;34.50;;;18.48;;
49764;SDS011;35657;51.204;-4.130;2023-04-19T05:11:16;28.38;;;19.40;;
49764;SDS011;35657;51.204;-4.130;2023-04-19T05:13:42;36.17;;;20.63;;
49764;SDS011;35657;51.204;-4.130;2023-04-19T05:16:08;30.60;;;20.90;;
49764;SDS011;35657;51.204;-4.130;2023-04-19T05:18:33;30.85;;;17.38;;
49764;SDS011;35657;51.204;-4.130;2023-04-19T05:20:59;30.17;;;18.52;;
49764;SDS011;35657;51.204;-4.130;2023-04-19T05:23:25;27.95;;;13.27;;
49764;SDS011;35657;51.204;-4.130;2023-04-19T05:25:50;34.03;;;20.10;;
49764;SDS011;35657;51.204;-4.130;2023-04-19T05:28:16;28.63;;;20.02;;
49764;SDS011;35657;51.204;-4.130;2023-04-19T05:30:42;26.48;;;15.07;;
49764;SDS011;35657;51.204;-4.130;2023-04-19T05:33:08;33.28;;;18.83;;
49764;SDS011;35657;51.204;-4.130;2023-04-19T05:35:33;34.13;;;19.10;;
49764;SDS011;35657;51.204;-4.130;2023-04-19T05:37:59;33.60;;;19.33;;
49764;SDS011;35657;51.204;-4.130;2023-04-19T05:40:25;33.70;;;22.92;;
49764;SDS011;35657;51.204;-4.130;2023-04-19T05:42:50;40.40;;;21.15;;
49764;SDS011;35657;51.204;-4.130;2023-04-19T05:45:16;26.15;;;13.63;;
49764;SDS011;35657;51.204;-4.130;2023-04-19T05:47:43;31.88;;;18.65;;
49764;SDS011;35657;51.204;-4.130;2023-04-19T05:50:08;31.92;;;16.48;;
49764;SDS011;35657;51.204;-4.130;2023-04-19T05:52:35;37.13;;;20.98;;
49764;SDS011;35657;51.204;-4.130;2023-04-19T05:55:00;30.00;;;17.30;;
49764;SDS011;35657;51.204;-4.130;2023-04-19T05:57:26;34.60;;;21.17;;
49764;SDS011;35657;51.204;-4.130;2023-04-19T05:59:52;30.83;;;22.00;;
49764;SDS011;35657;51.204;-4.130;2023-04-19T06:02:17;33.20;;;19.05;;
49764;SDS011;35657;51.204;-4.130;2023-04-19T06:04:43;33.85;;;19.00;;
49764;SDS011;35657;51.204;-4.130;2023-04-19T06:07:09;32.60;;;20.58;;
49764;SDS011;35657;51.204;-4.130;2023-04-19T06:09:35;37.05;;;20.90;;
49764;SDS011;35657;51.204;-4.130;2023-04-19T06:12:01;27.60;;;15.63;;
49764;SDS011;35657;51.204;-4.130;2023-04-19T06:14:26;32.95;;;18.35;;
49764;SDS011;35657;51.204;-4.130;2023-04-19T06:16:55;32.88;;;21.27;;
49764;SDS011;35657;51.204;-4.130;2023-04-19T06:19:21;32.42;;;20.38;;
49764;SDS011;35657;51.204;-4.130;2023-04-19T06:21:47;38.35;;;18.65;;
49764;SDS011;35657;51.204;-4.130;2023-04-19T06:24:13;35.42;;;19.38;;
49764;SDS011;35657;51.204;-4.130;2023-04-19T06:26:39;31.98;;;13.98;;
49764;SDS011;35657;51.204;-4.130;2023-04-19T06:29:05;27.83;;;20.30;;
49764;SDS011;35657;51.204;-4.130;2023-04-19T06:31:31;35.25;;;21.50;;
49764;SDS011;35657;51.204;-4.130;2023-04-19T06:33:57;32.55;;;21.02;;
49764;SDS011;35657;51.204;-4.130;2023-04-19T06:36:23;34.22;;;20.23;;
49764;SDS011;35657;51.204;-4.130;2023-04-19T06:38:48;25.42;;;12.23;;
49764;SDS011;35657;51.204;-4.130;2023-04-19T06:41:14;31.58;;;16.63;;
49764;SDS011;35657;51.204;-4.130;2023-04-19T06:43:40;29.95;;;17.48;;
49764;SDS011;35657;51.204;-4.130;2023-04-19T06:46:06;33.00;;;21.65;;
49764;SDS011;35657;51.204;-4.130;2023-04-19T06:48:33;34.85;;;20.83;;
49764;SDS011;35657;51.204;-4.130;2023-04-19T06:50:59;28.17;;;21.58;;
49764;SDS011;35657;51.204;-4.130;2023-04-19T06:53:25;33.75;;;21.45;;
49764;SDS011;35657;51.204;-4.130;2023-04-19T06:55:58;29.00;;;19.23;;
49764;SDS011;35657;51.204;-4.130;2023-04-19T06:58:26;29.42;;;21.08;;
49764;SDS011;35657;51.204;-4.130;2023-04-19T07:00:52;36.05;;;18.40;;
49764;SDS011;35657;51.204;-4.130;2023-04-19T07:03:18;39.47;;;21.95;;
49764;SDS011;35657;51.204;-4.130;2023-04-19T07:05:44;36.17;;;21.50;;
49764;SDS011;35657;51.204;-4.130;2023-04-19T07:08:09;27.30;;;22.45;;
49764;SDS011;35657;51.204;-4.130;2023-04-19T07:10:35;29.00;;;18.65;;
49764;SDS011;35657;51.204;-4.130;2023-04-19T07:13:01;28.92;;;21.83;;
49764;SDS011;35657;51.204;-4.130;2023-04-19T07:15:27;32.72;;;21.13;;
49764;SDS011;35657;51.204;-4.130;2023-04-19T07:17:52;30.15;;;17.30;;
49764;SDS011;35657;51.204;-4.130;2023-04-19T07:20:19;32.67;;;23.45;;
49764;SDS011;35657;51.204;-4.130;2023-04-19T07:22:45;30.23;;;22.25;;
49764;SDS011;35657;51.204;-4.130;2023-04-19T07:25:11;30.13;;;19.80;;
49764;SDS011;35657;51.204;-4.130;2023-04-19T07:27:38;29.20;;;17.13;;
49764;SDS011;35657;51.204;-4.130;2023-04-19T07:30:03;27.65;;;17.58;;
49764;SDS011;35657;51.204;-4.130;2023-04-19T07:32:30;32.85;;;22.48;;
49764;SDS011;35657;51.204;-4.130;2023-04-19T07:34:55;36.55;;;21.38;;
49764;SDS011;35657;51.204;-4.130;2023-04-19T07:37:21;30.38;;;24.52;;
49764;SDS011;35657;51.204;-4.130;2023-04-19T07:39:47;34.17;;;22.40;;
49764;SDS011;35657;51.204;-4.130;2023-04-19T07:42:12;37.35;;;22.90;;
49764;SDS011;35657;51.204;-4.130;2023-04-19T07:44:38;36.30;;;20.25;;
49764;SDS011;35657;51.204;-4.130;2023-04-19T07:47:04;30.88;;;22.55;;
49764;SDS011;35657;51.204;-4.130;2023-04-19T07:49:30;32.53;;;20.02;;
49764;SDS011;35657;51.204;-4.130;2023-04-19T07:51:58;32.03;;;23.70;;
49764;SDS011;35657;51.204;-4.130;2023-04-19T07:54:25;34.15;;;20.15;;
49764;SDS011;35657;51.204;-4.130;2023-04-19T07:56:52;44.13;;;19.02;;
49764;SDS011;35657;51.204;-4.130;2023-04-19T07:59:17;31.88;;;17.90;;
49764;SDS011;35657;51.204;-4.130;2023-04-19T08:01:43;33.00;;;18.25;;
49764;SDS011;35657;51.204;-4.130;2023-04-19T08:04:09;35.17;;;23.98;;
49764;SDS011;35657;51.204;-4.130;2023-04-19T08:06:34;34.20;;;23.35;;
49764;SDS011;35657;51.204;-4.130;2023-04-19T08:09:02;31.75;;;14.65;;
49764;SDS011;35657;51.204;-4.130;2023-04-19T08:11:28;32.90;;;17.33;;
49764;SDS011;35657;51.204;-4.130;2023-04-19T08:13:53;23.65;;;15.95;;
49764;SDS011;35657;51.204;-4.130;2023-04-19T08:16:19;31.38;;;19.83;;
49764;SDS011;35657;51.204;-4.130;2023-04-19T08:18:45;33.30;;;18.63;;
49764;SDS011;35657;51.204;-4.130;2023-04-19T08:21:12;30.45;;;18.02;;
49764;SDS011;35657;51.204;-4.130;2023-04-19T08:23:38;29.60;;;18.77;;
49764;SDS011;35657;51.204;-4.130;2023-04-19T08:26:04;32.95;;;23.10;;
49764;SDS011;35657;51.204;-4.130;2023-04-19T08:28:29;23.58;;;12.43;;
49764;SDS011;35657;51.204;-4.130;2023-04-19T08:30:56;29.88;;;21.95;;
49764;SDS011;35657;51.204;-4.130;2023-04-19T08:33:23;30.17;;;20.52;;
49764;SDS011;35657;51.204;-4.130;2023-04-19T08:35:48;33.22;;;20.83;;
49764;SDS011;35657;51.204;-4.130;2023-04-19T08:38:14;32.03;;;24.80;;
49764;SDS011;35657;51.204;-4.130;2023-04-19T08:40:43;33.35;;;22.30;;
49764;SDS011;35657;51.204;-4.130;2023-04-19T08:43:11;33.50;;;23.50;;
49764;SDS011;35657;51.204;-4.130;2023-04-19T08:45:37;33.88;;;25.40;;
49764;SDS011;35657;51.204;-4.130;2023-04-19T08:48:03;32.30;;;24.00;;
49764;SDS011;35657;51.204;-4.130;2023-04-19T08:50:30;32.10;;;20.30;;
49764;SDS011;35657;51.204;-4.130;2023-04-19T08:52:57;33.22;;;27.65;;
49764;SDS011;35657;51.204;-4.130;2023-04-19T08:55:25;34.63;;;23.08;;
49764;SDS011;35657;51.204;-4.130;2023-04-19T08:57:52;31.15;;;25.33;;
49764;SDS011;35657;51.204;-4.130;2023-04-19T09:00:18;32.00;;;24.98;;
49764;SDS011;35657;51.204;-4.130;2023-04-19T09:02:47;35.65;;;22.83;;
49764;SDS011;35657;51.204;-4.130;2023-04-19T09:07:44;29.45;;;18.10;;
49764;SDS011;35657;51.204;-4.130;2023-04-19T09:10:18;36.25;;;28.25;;
49764;SDS011;35657;51.204;-4.130;2023-04-19T09:13:00;37.63;;;22.67;;
49764;SDS011;35657;51.204;-4.130;2023-04-19T09:15:37;39.50;;;26.60;;
49764;SDS011;35657;51.204;-4.130;2023-04-19T09:18:05;39.72;;;22.65;;
49764;SDS011;35657;51.204;-4.130;2023-04-19T09:20:40;39.10;;;21.15;;
49764;SDS011;35657;51.204;-4.130;2023-04-19T09:23:08;35.33;;;25.63;;
49764;SDS011;35657;51.204;-4.130;2023-04-19T09:25:37;37.60;;;26.92;;
49764;SDS011;35657;51.204;-4.130;2023-04-19T09:28:13;35.65;;;28.98;;
49764;SDS011;35657;51.204;-4.130;2023-04-19T09:30:39;40.00;;;28.70;;
49764;SDS011;35657;51.204;-4.130;2023-04-19T09:33:05;36.13;;;28.25;;
49764;SDS011;35657;51.204;-4.130;2023-04-19T09:35:47;36.03;;;26.83;;
49764;SDS011;35657;51.204;-4.130;2023-04-19T09:38:13;35.65;;;23.08;;
49764;SDS011;35657;51.204;-4.130;2023-04-19T09:40:40;39.50;;;28.38;;
49764;SDS011;35657;51.204;-4.130;2023-04-19T09:43:07;34.55;;;27.58;;
49764;SDS011;35657;51.204;-4.130;2023-04-19T09:45:42;32.58;;;28.10;;
49764;SDS011;35657;51.204;-4.130;2023-04-19T09:48:09;34.03;;;24.27;;
49764;SDS011;35657;51.204;-4.130;2023-04-19T09:50:36;34.35;;;23.92;;
49764;SDS011;35657;51.204;-4.130;2023-04-19T09:53:25;34.17;;;29.38;;
49764;SDS011;35657;51.204;-4.130;2023-04-19T09:55:51;38.67;;;27.40;;
49764;SDS011;35657;51.204;-4.130;2023-04-19T09:58:18;34.08;;;19.52;;
49764;SDS011;35657;51.204;-4.130;2023-04-19T10:00:46;37.28;;;25.83;;
49764;SDS011;35657;51.204;-4.130;2023-04-19T10:03:14;35.03;;;25.92;;
49764;SDS011;35657;51.204;-4.130;2023-04-19T10:05:41;36.30;;;25.73;;
49764;SDS011;35657;51.204;-4.130;2023-04-19T10:08:08;38.22;;;27.50;;
49764;SDS011;35657;51.204;-4.130;2023-04-19T10:10:34;35.53;;;30.38;;
49764;SDS011;35657;51.204;-4.130;2023-04-19T10:13:02;34.05;;;22.02;;
49764;SDS011;35657;51.204;-4.130;2023-04-19T10:15:31;32.15;;;22.95;;
49764;SDS011;35657;51.204;-4.130;2023-04-19T10:17:58;35.45;;;28.73;;
49764;SDS011;35657;51.204;-4.130;2023-04-19T10:20:36;33.80;;;23.88;;
49764;SDS011;35657;51.204;-4.130;2023-04-19T10:23:06;37.45;;;28.42;;
49764;SDS011;35657;51.204;-4.130;2023-04-19T10:25:35;32.80;;;29.40;;
49764;SDS011;35657;51.204;-4.130;2023-04-19T10:28:01;31.63;;;24.10;;
49764;SDS011;35657;51.204;-4.130;2023-04-19T10:30:27;35.30;;;23.02;;
49764;SDS011;35657;51.204;-4.130;2023-04-19T10:32:54;33.80;;;24.67;;
49764;SDS011;35657;51.204;-4.130;2023-04-19T10:35:23;32.35;;;26.25;;
49764;SDS011;35657;51.204;-4.130;2023-04-19T10:38:02;35.50;;;27.25;;
49764;SDS011;35657;51.204;-4.130;2023-04-19T10:43:33;33.58;;;28.25;;
49764;SDS011;35657;51.204;-4.130;2023-04-19T10:46:07;40.72;;;26.58;;
49764;SDS011;35657;51.204;-4.130;2023-04-19T10:48:57;34.75;;;27.45;;
49764;SDS011;35657;51.204;-4.130;2023-04-19T10:54:02;33.40;;;24.42;;
49764;SDS011;35657;51.204;-4.130;2023-04-19T11:01:39;27.35;;;19.45;;
49764;SDS011;35657;51.204;-4.130;2023-04-19T11:09:25;35.63;;;27.15;;
49764;SDS011;35657;51.204;-4.130;2023-04-19T11:12:09;34.47;;;25.90;;
49764;SDS011;35657;51.204;-4.130;2023-04-19T11:14:38;38.00;;;26.10;;
49764;SDS011;35657;51.204;-4.130;2023-04-19T11:19:50;37.88;;;28.35;;
49764;SDS011;35657;51.204;-4.130;2023-04-19T11:22:39;27.85;;;23.45;;
49764;SDS011;35657;51.204;-4.130;2023-04-19T11:25:10;32.38;;;26.08;;
49764;SDS011;35657;51.204;-4.130;2023-04-19T11:27:42;34.55;;;25.42;;
49764;SDS011;35657;51.204;-4.130;2023-04-19T11:30:10;32.53;;;26.05;;
49764;SDS011;35657;51.204;-4.130;2023-04-19T11:32:37;32.50;;;29.02;;
49764;SDS011;35657;51.204;-4.130;2023-04-19T11:35:13;32.08;;;27.58;;
49764;SDS011;35657;51.204;-4.130;2023-04-19T11:37:42;34.05;;;24.65;;
49764;SDS011;35657;51.204;-4.130;2023-04-19T11:40:08;37.50;;;25.88;;
49764;SDS011;35657;51.204;-4.130;2023-04-19T11:42:38;32.30;;;22.70;;
49764;SDS011;35657;51.204;-4.130;2023-04-19T11:45:04;30.02;;;26.10;;
49764;SDS011;35657;51.204;-4.130;2023-04-19T11:47:31;29.63;;;26.25;;
49764;SDS011;35657;51.204;-4.130;2023-04-19T11:50:09;33.15;;;25.38;;
49764;SDS011;35657;51.204;-4.130;2023-04-19T11:52:55;35.88;;;27.00;;
49764;SDS011;35657;51.204;-4.130;2023-04-19T11:55:21;31.23;;;22.70;;
49764;SDS011;35657;51.204;-4.130;2023-04-19T11:57:47;35.13;;;28.50;;
49764;SDS011;35657;51.204;-4.130;2023-04-19T12:00:14;32.30;;;27.90;;
49764;SDS011;35657;51.204;-4.130;2023-04-19T12:02:43;29.88;;;26.63;;
49764;SDS011;35657;51.204;-4.130;2023-04-19T12:05:10;32.58;;;24.83;;
49764;SDS011;35657;51.204;-4.130;2023-04-19T12:07:55;41.63;;;25.95;;
49764;SDS011;35657;51.204;-4.130;2023-04-19T12:10:25;34.00;;;25.73;;
49764;SDS011;35657;51.204;-4.130;2023-04-19T12:12:50;28.98;;;24.75;;
49764;SDS011;35657;51.204;-4.130;2023-04-19T12:15:16;29.92;;;24.10;;
49764;SDS011;35657;51.204;-4.130;2023-04-19T12:17:55;32.25;;;29.25;;
49764;SDS011;35657;51.204;-4.130;2023-04-19T12:20:28;29.83;;;26.85;;
49764;SDS011;35657;51.204;-4.130;2023-04-19T12:22:58;32.40;;;24.45;;
49764;SDS011;35657;51.204;-4.130;2023-04-19T12:25:30;32.30;;;22.40;;
49764;SDS011;35657;51.204;-4.130;2023-04-19T12:27:58;33.77;;;23.30;;
49764;SDS011;35657;51.204;-4.130;2023-04-19T12:30:24;29.08;;;20.08;;
49764;SDS011;35657;51.204;-4.130;2023-04-19T12:32:51;29.52;;;25.73;;
49764;SDS011;35657;51.204;-4.130;2023-04-19T12:35:20;33.10;;;24.52;;
49764;SDS011;35657;51.204;-4.130;2023-04-19T12:37:47;33.65;;;23.10;;
49764;SDS011;35657;51.204;-4.130;2023-04-19T12:40:13;32.88;;;22.67;;
49764;SDS011;35657;51.204;-4.130;2023-04-19T12:42:39;32.95;;;25.35;;
49764;SDS011;35657;51.204;-4.130;2023-04-19T12:45:05;33.10;;;23.75;;
49764;SDS011;35657;51.204;-4.130;2023-04-19T12:47:31;26.70;;;23.80;;
49764;SDS011;35657;51.204;-4.130;2023-04-19T12:49:57;28.52;;;22.17;;
49764;SDS011;35657;51.204;-4.130;2023-04-19T12:52:23;25.52;;;22.92;;
49764;SDS011;35657;51.204;-4.130;2023-04-19T12:54:48;28.50;;;22.02;;
49764;SDS011;35657;51.204;-4.130;2023-04-19T12:57:14;31.05;;;23.77;;
49764;SDS011;35657;51.204;-4.130;2023-04-19T12:59:41;29.48;;;23.95;;
49764;SDS011;35657;51.204;-4.130;2023-04-19T13:02:07;31.33;;;22.63;;
49764;SDS011;35657;51.204;-4.130;2023-04-19T13:04:32;25.05;;;21.92;;
49764;SDS011;35657;51.204;-4.130;2023-04-19T13:06:58;26.90;;;17.17;;
49764;SDS011;35657;51.204;-4.130;2023-04-19T13:09:26;27.58;;;22.15;;
49764;SDS011;35657;51.204;-4.130;2023-04-19T13:11:55;29.00;;;21.88;;
49764;SDS011;35657;51.204;-4.130;2023-04-19T13:14:23;27.58;;;22.88;;
49764;SDS011;35657;51.204;-4.130;2023-04-19T13:16:52;25.52;;;21.88;;
49764;SDS011;35657;51.204;-4.130;2023-04-19T13:19:18;24.98;;;22.40;;
49764;SDS011;35657;51.204;-4.130;2023-04-19T13:21:44;28.65;;;22.08;;
49764;SDS011;35657;51.204;-4.130;2023-04-19T13:24:09;25.77;;;21.45;;
49764;SDS011;35657;51.204;-4.130;2023-04-19T13:26:35;22.60;;;20.23;;
49764;SDS011;35657;51.204;-4.130;2023-04-19T13:29:01;23.20;;;18.08;;
49764;SDS011;35657;51.204;-4.130;2023-04-19T13:31:27;23.25;;;19.30;;
49764;SDS011;35657;51.204;-4.130;2023-04-19T13:33:53;19.83;;;12.50;;
49764;SDS011;35657;51.204;-4.130;2023-04-19T13:36:19;22.40;;;20.02;;
49764;SDS011;35657;51.204;-4.130;2023-04-19T13:38:45;21.60;;;19.33;;
49764;SDS011;35657;51.204;-4.130;2023-04-19T13:41:11;21.92;;;18.25;;
49764;SDS011;35657;51.204;-4.130;2023-04-19T13:43:37;21.83;;;18.35;;
49764;SDS011;35657;51.204;-4.130;2023-04-19T13:46:03;24.98;;;18.33;;
49764;SDS011;35657;51.204;-4.130;2023-04-19T13:48:29;19.65;;;15.38;;
49764;SDS011;35657;51.204;-4.130;2023-04-19T13:50:55;19.98;;;16.23;;
49764;SDS011;35657;51.204;-4.130;2023-04-19T13:53:22;26.42;;;16.67;;
49764;SDS011;35657;51.204;-4.130;2023-04-19T13:55:48;23.52;;;16.35;;
49764;SDS011;35657;51.204;-4.130;2023-04-19T13:58:14;22.58;;;17.42;;
49764;SDS011;35657;51.204;-4.130;2023-04-19T14:00:40;20.92;;;16.40;;
49764;SDS011;35657;51.204;-4.130;2023-04-19T14:03:05;21.42;;;15.75;;
49764;SDS011;35657;51.204;-4.130;2023-04-19T14:05:31;22.50;;;15.43;;
49764;SDS011;35657;51.204;-4.130;2023-04-19T14:07:57;18.60;;;16.65;;
49764;SDS011;35657;51.204;-4.130;2023-04-19T14:10:23;21.60;;;15.55;;
49764;SDS011;35657;51.204;-4.130;2023-04-19T14:12:49;20.65;;;15.63;;
49764;SDS011;35657;51.204;-4.130;2023-04-19T14:15:17;21.92;;;14.43;;
49764;SDS011;35657;51.204;-4.130;2023-04-19T14:17:47;15.93;;;13.57;;
49764;SDS011;35657;51.204;-4.130;2023-04-19T14:20:13;20.00;;;15.40;;
49764;SDS011;35657;51.204;-4.130;2023-04-19T14:22:39;19.02;;;14.93;;
49764;SDS011;35657;51.204;-4.130;2023-04-19T14:25:05;19.30;;;14.35;;
49764;SDS011;35657;51.204;-4.130;2023-04-19T14:27:31;18.10;;;16.13;;
49764;SDS011;35657;51.204;-4.130;2023-04-19T14:29:57;18.33;;;14.65;;
49764;SDS011;35657;51.204;-4.130;2023-04-19T14:32:23;16.52;;;13.35;;